John H Macmillan Jr — WDB9907 — position and weather

sailwx.info

Track history (hours):
 
Tides and Currents Weather Stations Pressure Air Temp Water Temp Dewpoint Dewpoint Depression Visibility Wind Speed Wind Dir Waves Ship Positions

John H Macmillan Jr

Owner: American River Transportation Company, St Louis, MO. More information available from US FCC via Universal Licensing System and Coast Guard Vessel Documentation Center.

Last reported at 2016-Aug-11 05:33 UTC. Time now 2016-Aug-24 08:30 UTC.
Position N 31°59' W 091°07'.
Warning: this ship's position is 13 days out of date.

Length 55 m.

Type: Towing. MMSI: 366984920.

Date/timePositionNaut miles runAvg speedWind from/ knotsBaromVisibWave heightAir tempDewpointWater temp
2016-Aug-11 05:33N 31°59' W 091°07'7 7.2
2016-Aug-11 04:33N 32°06' W 091°06'4 3.7
2016-Aug-11 03:34N 32°07' W 091°02'8 7.8
2016-Aug-11 02:34N 32°15' W 090°59'5 5.2
2016-Aug-11 01:34N 32°19' W 090°55'0 0.1
2016-Aug-11 00:33N 32°19' W 090°55'0 0.0
2016-Aug-10 23:34N 32°19' W 090°55'0 0.0
2016-Aug-10 22:34N 32°18' W 090°55'2 1.9
2016-Aug-10 21:34N 32°20' W 090°55'3 2.9
2016-Aug-10 20:33N 32°21' W 090°58'0 0.0
2016-Aug-10 19:34N 32°21' W 090°58'2 2.2
2016-Aug-10 18:34N 32°22' W 091°00'7 6.7
2016-Aug-10 17:34N 32°27' W 091°05'8 7.9
2016-Aug-10 16:34N 32°35' W 091°07'9 6.3
2016-Aug-10 15:03N 32°44' W 091°04'4 7.9
2016-Aug-10 14:31N 32°45' W 091°09'  
2016-Aug-01 08:33N 33°20' W 091°10'  
Track history (hours):
 
Tides and Currents Weather Stations Pressure Air Temp Water Temp Dewpoint Dewpoint Depression Visibility Wind Speed Wind Dir Waves Ship Positions

John H Macmillan Jr

Owner: American River Transportation Company, St Louis, MO. More information available from US FCC via Universal Licensing System and Coast Guard Vessel Documentation Center.

Last reported at 2016-Aug-11 05:33 UTC. Time now 2016-Aug-24 08:30 UTC.
Position N 31°59' W 091°07'.
Warning: this ship's position is 13 days out of date.

Length 55 m.

Type: Towing. MMSI: 366984920.

Date/timePositionNaut miles runAvg speedWind from/ knotsBaromVisibWave heightAir tempDewpointWater temp
2016-Aug-11 05:33N 31°59' W 091°07'7 7.2
2016-Aug-11 04:33N 32°06' W 091°06'4 3.7
2016-Aug-11 03:34N 32°07' W 091°02'8 7.8
2016-Aug-11 02:34N 32°15' W 090°59'5 5.2
2016-Aug-11 01:34N 32°19' W 090°55'0 0.1
2016-Aug-11 00:33N 32°19' W 090°55'0 0.0
2016-Aug-10 23:34N 32°19' W 090°55'0 0.0
2016-Aug-10 22:34N 32°18' W 090°55'2 1.9
2016-Aug-10 21:34N 32°20' W 090°55'3 2.9
2016-Aug-10 20:33N 32°21' W 090°58'0 0.0
2016-Aug-10 19:34N 32°21' W 090°58'2 2.2
2016-Aug-10 18:34N 32°22' W 091°00'7 6.7
2016-Aug-10 17:34N 32°27' W 091°05'8 7.9
2016-Aug-10 16:34N 32°35' W 091°07'9 6.3
2016-Aug-10 15:03N 32°44' W 091°04'4 7.9
2016-Aug-10 14:31N 32°45' W 091°09'  
2016-Aug-01 08:33N 33°20' W 091°10'  

Dump ship's entire track history